Terminal Aerodrome Forecast
Issued by NWS

Home | Current Version | Previous Version | Text Only | Print | Product List | Glossary On
Versions: 1 2 3 4 5 6 7 8 9 10 11 12 13 14 15
000
FTUS43 KBIS 281200 AAA
TAFMOT
TAF AMD
KMOT 281256Z 2813/0112 28008KT P6SM OVC060
     FM281700 27014KT P6SM SCT060
      TEMPO 2817/2820 BKN025=

USA.gov is the U.S. government's official web portal to all federal, state and local government web resources and services.